Archival Weather

Tokyo Intl

Tokyo, Japan (RJTT)

Report from: Sunday, March 19, 2023 12:00 PM JST
Current time: Tuesday, February 27, 2024 8:17 PM JST

Current weather – Weather history – Daily summaries
Weather forecast

Temperature12.0°C (53.6°F)
Dew point-0.0°C (32.0°F)
Winds 8 kts (4.1 m/s, 9.2 mph) East (90°)
Visibility6.2 mi. (10 km)
Clouds Few clouds 3,000 ft. (914 m)
Altimeter30.06 in.Hg (1018 mB)
Relative humidity44 %
Density altitude-423 ft. (-129 m)
Remarks No significant changes expected in the next two hours
Flight conditions Visual Meteorological Conditions
Raw dataRJTT 190300Z 09008KT 9999 FEW030 12/M00 Q1018 NOSIG RMK 1CU030 A3009
An error has occurred. This application may no longer respond until reloaded. Reload 🗙